Minerva Joy — 9HA3334 — position and weather

sailwx.info

Track history (hours):
 
Tides and Currents Weather Stations Pressure Air Temp Water Temp Dewpoint Dewpoint Depression Visibility Wind Speed Wind Dir Waves Ship Positions

Minerva Joy

Last reported at 2017-Nov-16 07:17 UTC. Time now 2017-Nov-21 17:26 UTC.
Position N 56°10' E 011°16'.

Length 179 m; draft 11.4 m.

Type: Ship. MMSI: 229446000.

Date/timePositionNaut miles runAvg speedWind from/ knotsBaromVisibWave heightAir tempDewpointWater temp
2017-Nov-16 07:17N 56°10' E 011°16'612.5
2017-Nov-16 06:47N 56°16' E 011°21'412.4
2017-Nov-16 06:30N 56°19' E 011°25'1012.5
2017-Nov-16 05:40N 56°28' E 011°34'412.8
2017-Nov-16 05:23N 56°31' E 011°37'812.5
2017-Nov-16 04:43N 56°38' E 011°44'312.4
2017-Nov-16 04:27N 56°41' E 011°47'3012.2
2017-Nov-16 01:58N 57°11' E 011°35'612.9
2017-Nov-16 01:30N 57°17' E 011°31'713.3
2017-Nov-16 01:00N 57°23' E 011°27'612.7
2017-Nov-16 00:30N 57°28' E 011°21'612.9
2017-Nov-16 00:00N 57°32' E 011°11'713.1
2017-Nov-15 23:30N 57°35' E 010°60'613.1
2017-Nov-15 23:00N 57°37' E 010°49'510.7
2017-Nov-15 22:30N 57°41' E 010°42'1 1.1
2017-Nov-15 21:54N 57°42' E 010°41'0 0.0
2017-Nov-15 20:57N 57°42' E 010°41'0 0.0
2017-Nov-15 20:30N 57°42' E 010°41'0 0.0
2017-Nov-15 20:00N 57°42' E 010°41'0 0.0
2017-Nov-15 19:30N 57°42' E 010°41'0 0.0
2017-Nov-15 19:00N 57°42' E 010°41'0 0.0
2017-Nov-15 18:30N 57°42' E 010°41'0 0.2
2017-Nov-15 18:00N 57°42' E 010°41'1 2.3
2017-Nov-15 17:30N 57°42' E 010°43'3 5.3
2017-Nov-15 17:00N 57°42' E 010°48'3 5.4
2017-Nov-15 16:29N 57°44' E 010°52'510.1
2017-Nov-15 16:00N 57°47' E 010°45'612.4
2017-Nov-15 15:30N 57°48' E 010°34'612.1
2017-Nov-15 15:00N 57°48' E 010°22'712.8
2017-Nov-15 14:27N 57°48' E 010°09'8413.0
2017-Nov-15 07:58N 57°42' E 007°32'612.2
2017-Nov-15 07:30N 57°42' E 007°21'611.9
2017-Nov-15 07:00N 57°42' E 007°10'611.7
2017-Nov-15 06:30N 57°42' E 006°59'611.8
2017-Nov-15 06:00N 57°43' E 006°48'612.3
2017-Nov-15 05:30N 57°43' E 006°36'612.3
2017-Nov-15 05:00N 57°47' E 006°27'612.6
2017-Nov-15 04:30N 57°51' E 006°18'712.9
2017-Nov-15 03:59N 57°55' E 006°08'612.9
2017-Nov-15 03:30N 57°59' E 005°59'612.6
2017-Nov-15 03:00N 58°03' E 005°50'3612.5
2017-Nov-15 00:07N 58°27' E 004°60'213.2
2017-Nov-14 23:58N 58°29' E 004°57'613.4
2017-Nov-14 23:31N 58°33' E 004°49'713.2
2017-Nov-14 23:00N 58°38' E 004°41'712.7
2017-Nov-14 22:26N 58°44' E 004°31'  
2017-Nov-11 16:35N 71°05' E 021°58'111.8
2017-Nov-11 16:30N 71°05' E 022°01'612.3
2017-Nov-11 16:00N 71°05' E 022°19'611.7
2017-Nov-11 15:30N 71°05' E 022°38'611.6
2017-Nov-11 15:00N 71°05' E 022°55'612.5
2017-Nov-11 14:30N 71°04' E 023°14'611.5
2017-Nov-11 14:00N 71°04' E 023°32'611.2
2017-Nov-11 13:30N 70°59' E 023°35'612.3
2017-Nov-11 13:00N 70°52' E 023°32'611.9
2017-Nov-11 12:30N 70°47' E 023°34'611.6
2017-Nov-11 12:00N 70°41' E 023°33'1 1.7
2017-Nov-11 11:30N 70°41' E 023°36'0 0.0
2017-Nov-11 11:00N 70°41' E 023°36'0 0.0
2017-Nov-11 10:30N 70°41' E 023°36'0 0.0
2017-Nov-11 10:00N 70°41' E 023°36'0 0.0
2017-Nov-11 09:30N 70°41' E 023°36'0 0.0
2017-Nov-11 09:00N 70°41' E 023°36'0 0.0
2017-Nov-11 08:30N 70°41' E 023°36'0 0.0
2017-Nov-11 08:00N 70°41' E 023°36'0 0.0
2017-Nov-11 07:30N 70°41' E 023°36'0 0.0
2017-Nov-11 07:00N 70°41' E 023°36'0 0.0
2017-Nov-11 06:30N 70°41' E 023°36'0 0.0
2017-Nov-11 06:00N 70°41' E 023°36'0 0.0
2017-Nov-11 05:30N 70°41' E 023°36'0 0.0
2017-Nov-11 05:00N 70°41' E 023°36'0 0.0
2017-Nov-11 04:30N 70°41' E 023°36'0 0.0
2017-Nov-11 04:00N 70°41' E 023°36'0 0.0
2017-Nov-11 03:30N 70°41' E 023°36'0 0.0
2017-Nov-11 03:00N 70°41' E 023°36'0 0.0
2017-Nov-11 02:30N 70°41' E 023°36'0 0.0
2017-Nov-11 02:00N 70°41' E 023°36'0 0.0
2017-Nov-11 01:30N 70°41' E 023°36'0 0.0
2017-Nov-11 01:00N 70°41' E 023°36'0 0.0
2017-Nov-11 00:30N 70°41' E 023°36'0 0.0
2017-Nov-11 00:00N 70°41' E 023°36'0 0.0
2017-Nov-10 23:30N 70°41' E 023°36'0 0.0
2017-Nov-10 23:00N 70°41' E 023°36'0 0.0
2017-Nov-10 22:30N 70°41' E 023°36'0 0.0
2017-Nov-10 22:00N 70°41' E 023°36'0 0.0
2017-Nov-10 21:30N 70°41' E 023°36'0 0.0
2017-Nov-10 21:00N 70°41' E 023°36'0 0.0
2017-Nov-10 20:30N 70°41' E 023°36'0 0.0
2017-Nov-10 20:00N 70°41' E 023°36'0 0.0
2017-Nov-10 19:30N 70°41' E 023°36'0 0.0
2017-Nov-10 19:00N 70°41' E 023°36'0 0.0
2017-Nov-10 18:30N 70°41' E 023°36'0 0.0
2017-Nov-10 18:00N 70°41' E 023°36'0 0.0
2017-Nov-10 17:30N 70°41' E 023°36'0 0.0
2017-Nov-10 17:00N 70°41' E 023°36'0 0.0
2017-Nov-10 16:30N 70°41' E 023°36'0 0.0
2017-Nov-10 16:00N 70°41' E 023°36'0 0.0
2017-Nov-10 15:30N 70°41' E 023°36'0 0.0
2017-Nov-10 15:00N 70°41' E 023°36'0 0.0
2017-Nov-10 14:30N 70°41' E 023°36'0 0.0
2017-Nov-10 14:00N 70°41' E 023°36'0 0.6
2017-Nov-10 13:30N 70°41' E 023°36'2 4.6
2017-Nov-10 13:00N 70°43' E 023°32'611.2
2017-Nov-10 12:30N 70°48' E 023°33'713.4
2017-Nov-10 12:00N 70°55' E 023°35'612.0
2017-Nov-10 11:30N 71°01' E 023°34'4 8.0
2017-Nov-10 10:59N 71°04' E 023°27'2 4.3
2017-Nov-10 10:29N 71°05' E 023°20'4 7.3
2017-Nov-10 10:00N 71°05' E 023°09'4 7.9
2017-Nov-10 09:30N 71°05' E 022°57'4 8.4
2017-Nov-10 09:00N 71°05' E 022°44'510.9
2017-Nov-10 08:30N 71°05' E 022°28'611.1
2017-Nov-10 08:00N 71°04' E 022°11'510.9
2017-Nov-10 07:30N 71°04' E 021°54'  
2017-Nov-07 06:24N 58°52' E 004°28'611.8
2017-Nov-07 05:55N 58°48' E 004°35'511.3
2017-Nov-07 05:30N 58°45' E 004°41'611.3
2017-Nov-07 05:00N 58°41' E 004°49'611.6
2017-Nov-07 04:30N 58°37' E 004°57'612.0
2017-Nov-07 04:00N 58°32' E 005°04'612.4
2017-Nov-07 03:30N 58°28' E 005°13'612.4
2017-Nov-07 03:00N 58°23' E 005°21'612.5
2017-Nov-07 02:29N 58°19' E 005°29'613.0
2017-Nov-07 02:00N 58°14' E 005°37'713.1
2017-Nov-07 01:27N 58°07' E 005°43'1013.0
2017-Nov-07 00:40N 57°58' E 005°50'212.8
2017-Nov-07 00:29N 57°56' E 005°51'712.9
2017-Nov-06 23:59N 57°49' E 005°56'  
Track history (hours):
 
Tides and Currents Weather Stations Pressure Air Temp Water Temp Dewpoint Dewpoint Depression Visibility Wind Speed Wind Dir Waves Ship Positions

Minerva Joy

Last reported at 2017-Nov-16 07:17 UTC. Time now 2017-Nov-21 17:26 UTC.
Position N 56°10' E 011°16'.

Length 179 m; draft 11.4 m.

Type: Ship. MMSI: 229446000.

Date/timePositionNaut miles runAvg speedWind from/ knotsBaromVisibWave heightAir tempDewpointWater temp
2017-Nov-16 07:17N 56°10' E 011°16'612.5
2017-Nov-16 06:47N 56°16' E 011°21'412.4
2017-Nov-16 06:30N 56°19' E 011°25'1012.5
2017-Nov-16 05:40N 56°28' E 011°34'412.8
2017-Nov-16 05:23N 56°31' E 011°37'812.5
2017-Nov-16 04:43N 56°38' E 011°44'312.4
2017-Nov-16 04:27N 56°41' E 011°47'3012.2
2017-Nov-16 01:58N 57°11' E 011°35'612.9
2017-Nov-16 01:30N 57°17' E 011°31'713.3
2017-Nov-16 01:00N 57°23' E 011°27'612.7
2017-Nov-16 00:30N 57°28' E 011°21'612.9
2017-Nov-16 00:00N 57°32' E 011°11'713.1
2017-Nov-15 23:30N 57°35' E 010°60'613.1
2017-Nov-15 23:00N 57°37' E 010°49'510.7
2017-Nov-15 22:30N 57°41' E 010°42'1 1.1
2017-Nov-15 21:54N 57°42' E 010°41'0 0.0
2017-Nov-15 20:57N 57°42' E 010°41'0 0.0
2017-Nov-15 20:30N 57°42' E 010°41'0 0.0
2017-Nov-15 20:00N 57°42' E 010°41'0 0.0
2017-Nov-15 19:30N 57°42' E 010°41'0 0.0
2017-Nov-15 19:00N 57°42' E 010°41'0 0.0
2017-Nov-15 18:30N 57°42' E 010°41'0 0.2
2017-Nov-15 18:00N 57°42' E 010°41'1 2.3
2017-Nov-15 17:30N 57°42' E 010°43'3 5.3
2017-Nov-15 17:00N 57°42' E 010°48'3 5.4
2017-Nov-15 16:29N 57°44' E 010°52'510.1
2017-Nov-15 16:00N 57°47' E 010°45'612.4
2017-Nov-15 15:30N 57°48' E 010°34'612.1
2017-Nov-15 15:00N 57°48' E 010°22'712.8
2017-Nov-15 14:27N 57°48' E 010°09'8413.0
2017-Nov-15 07:58N 57°42' E 007°32'612.2
2017-Nov-15 07:30N 57°42' E 007°21'611.9
2017-Nov-15 07:00N 57°42' E 007°10'611.7
2017-Nov-15 06:30N 57°42' E 006°59'611.8
2017-Nov-15 06:00N 57°43' E 006°48'612.3
2017-Nov-15 05:30N 57°43' E 006°36'612.3
2017-Nov-15 05:00N 57°47' E 006°27'612.6
2017-Nov-15 04:30N 57°51' E 006°18'712.9
2017-Nov-15 03:59N 57°55' E 006°08'612.9
2017-Nov-15 03:30N 57°59' E 005°59'612.6
2017-Nov-15 03:00N 58°03' E 005°50'3612.5
2017-Nov-15 00:07N 58°27' E 004°60'213.2
2017-Nov-14 23:58N 58°29' E 004°57'613.4
2017-Nov-14 23:31N 58°33' E 004°49'713.2
2017-Nov-14 23:00N 58°38' E 004°41'712.7
2017-Nov-14 22:26N 58°44' E 004°31'  
2017-Nov-11 16:35N 71°05' E 021°58'111.8
2017-Nov-11 16:30N 71°05' E 022°01'612.3
2017-Nov-11 16:00N 71°05' E 022°19'611.7
2017-Nov-11 15:30N 71°05' E 022°38'611.6
2017-Nov-11 15:00N 71°05' E 022°55'612.5
2017-Nov-11 14:30N 71°04' E 023°14'611.5
2017-Nov-11 14:00N 71°04' E 023°32'611.2
2017-Nov-11 13:30N 70°59' E 023°35'612.3
2017-Nov-11 13:00N 70°52' E 023°32'611.9
2017-Nov-11 12:30N 70°47' E 023°34'611.6
2017-Nov-11 12:00N 70°41' E 023°33'1 1.7
2017-Nov-11 11:30N 70°41' E 023°36'0 0.0
2017-Nov-11 11:00N 70°41' E 023°36'0 0.0
2017-Nov-11 10:30N 70°41' E 023°36'0 0.0
2017-Nov-11 10:00N 70°41' E 023°36'0 0.0
2017-Nov-11 09:30N 70°41' E 023°36'0 0.0
2017-Nov-11 09:00N 70°41' E 023°36'0 0.0
2017-Nov-11 08:30N 70°41' E 023°36'0 0.0
2017-Nov-11 08:00N 70°41' E 023°36'0 0.0
2017-Nov-11 07:30N 70°41' E 023°36'0 0.0
2017-Nov-11 07:00N 70°41' E 023°36'0 0.0
2017-Nov-11 06:30N 70°41' E 023°36'0 0.0
2017-Nov-11 06:00N 70°41' E 023°36'0 0.0
2017-Nov-11 05:30N 70°41' E 023°36'0 0.0
2017-Nov-11 05:00N 70°41' E 023°36'0 0.0
2017-Nov-11 04:30N 70°41' E 023°36'0 0.0
2017-Nov-11 04:00N 70°41' E 023°36'0 0.0
2017-Nov-11 03:30N 70°41' E 023°36'0 0.0
2017-Nov-11 03:00N 70°41' E 023°36'0 0.0
2017-Nov-11 02:30N 70°41' E 023°36'0 0.0
2017-Nov-11 02:00N 70°41' E 023°36'0 0.0
2017-Nov-11 01:30N 70°41' E 023°36'0 0.0
2017-Nov-11 01:00N 70°41' E 023°36'0 0.0
2017-Nov-11 00:30N 70°41' E 023°36'0 0.0
2017-Nov-11 00:00N 70°41' E 023°36'0 0.0
2017-Nov-10 23:30N 70°41' E 023°36'0 0.0
2017-Nov-10 23:00N 70°41' E 023°36'0 0.0
2017-Nov-10 22:30N 70°41' E 023°36'0 0.0
2017-Nov-10 22:00N 70°41' E 023°36'0 0.0
2017-Nov-10 21:30N 70°41' E 023°36'0 0.0
2017-Nov-10 21:00N 70°41' E 023°36'0 0.0
2017-Nov-10 20:30N 70°41' E 023°36'0 0.0
2017-Nov-10 20:00N 70°41' E 023°36'0 0.0
2017-Nov-10 19:30N 70°41' E 023°36'0 0.0
2017-Nov-10 19:00N 70°41' E 023°36'0 0.0
2017-Nov-10 18:30N 70°41' E 023°36'0 0.0
2017-Nov-10 18:00N 70°41' E 023°36'0 0.0
2017-Nov-10 17:30N 70°41' E 023°36'0 0.0
2017-Nov-10 17:00N 70°41' E 023°36'0 0.0
2017-Nov-10 16:30N 70°41' E 023°36'0 0.0
2017-Nov-10 16:00N 70°41' E 023°36'0 0.0
2017-Nov-10 15:30N 70°41' E 023°36'0 0.0
2017-Nov-10 15:00N 70°41' E 023°36'0 0.0
2017-Nov-10 14:30N 70°41' E 023°36'0 0.0
2017-Nov-10 14:00N 70°41' E 023°36'0 0.6
2017-Nov-10 13:30N 70°41' E 023°36'2 4.6
2017-Nov-10 13:00N 70°43' E 023°32'611.2
2017-Nov-10 12:30N 70°48' E 023°33'713.4
2017-Nov-10 12:00N 70°55' E 023°35'612.0
2017-Nov-10 11:30N 71°01' E 023°34'4 8.0
2017-Nov-10 10:59N 71°04' E 023°27'2 4.3
2017-Nov-10 10:29N 71°05' E 023°20'4 7.3
2017-Nov-10 10:00N 71°05' E 023°09'4 7.9
2017-Nov-10 09:30N 71°05' E 022°57'4 8.4
2017-Nov-10 09:00N 71°05' E 022°44'510.9
2017-Nov-10 08:30N 71°05' E 022°28'611.1
2017-Nov-10 08:00N 71°04' E 022°11'510.9
2017-Nov-10 07:30N 71°04' E 021°54'  
2017-Nov-07 06:24N 58°52' E 004°28'611.8
2017-Nov-07 05:55N 58°48' E 004°35'511.3
2017-Nov-07 05:30N 58°45' E 004°41'611.3
2017-Nov-07 05:00N 58°41' E 004°49'611.6
2017-Nov-07 04:30N 58°37' E 004°57'612.0
2017-Nov-07 04:00N 58°32' E 005°04'612.4
2017-Nov-07 03:30N 58°28' E 005°13'612.4
2017-Nov-07 03:00N 58°23' E 005°21'612.5
2017-Nov-07 02:29N 58°19' E 005°29'613.0
2017-Nov-07 02:00N 58°14' E 005°37'713.1
2017-Nov-07 01:27N 58°07' E 005°43'1013.0
2017-Nov-07 00:40N 57°58' E 005°50'212.8
2017-Nov-07 00:29N 57°56' E 005°51'712.9
2017-Nov-06 23:59N 57°49' E 005°56'  

Dump ship's entire track history